Time;durP1;ratioP1;P1;durP2;ratioP2;P2;SDS_P1;SDS_P2;PMS_P1;PMS_P2;Temp;Humidity;BMP_temperature;BMP_pressure;BME280_temperature;BME280_humidity;BME280_pressure;Samples;Min_cycle;Max_cycle;Signal;HPM_P1;HPM_P2
2023/04/14 00:00:26;;;;;;;8.50;3.50;;;;;;;5.81;100.00;101075.50;4987709;28;20236;-72
2023/04/14 00:02:51;;;;;;;8.43;3.33;;;;;;;5.64;100.00;101061.31;4989608;28;20736;-72
2023/04/14 00:05:17;;;;;;;9.33;3.57;;;;;;;5.74;100.00;101074.50;4988548;28;20185;-72
2023/04/14 00:07:43;;;;;;;8.10;4.13;;;;;;;5.63;100.00;101070.28;4991722;28;20214;-72
2023/04/14 00:10:09;;;;;;;8.43;4.27;;;;;;;5.21;100.00;101049.00;4968071;28;20190;-72
2023/04/14 00:12:34;;;;;;;6.30;3.40;;;;;;;5.30;100.00;101087.13;4972221;28;20205;-72
2023/04/14 00:15:00;;;;;;;7.50;3.67;;;;;;;5.38;100.00;101081.81;4991373;28;20433;-72
2023/04/14 00:17:26;;;;;;;9.30;3.83;;;;;;;5.38;100.00;101077.34;4990476;28;20676;-72
2023/04/14 00:19:52;;;;;;;6.00;3.00;;;;;;;4.90;100.00;101014.94;4989055;28;20186;-72
2023/04/14 00:22:17;;;;;;;11.70;3.33;;;;;;;5.01;100.00;101032.44;4969793;28;20473;-72
2023/04/14 00:24:43;;;;;;;8.43;3.30;;;;;;;5.26;100.00;101065.31;4988517;28;20216;-72
2023/04/14 00:27:09;;;;;;;7.10;3.17;;;;;;;5.17;100.00;101043.16;4986371;28;20229;-72
2023/04/14 00:29:34;;;;;;;7.80;3.20;;;;;;;5.06;100.00;101045.25;4988349;28;20194;-72
2023/04/14 00:32:00;;;;;;;8.73;3.80;;;;;;;4.79;100.00;101049.75;4992300;28;20492;-72
2023/04/14 00:34:25;;;;;;;7.57;3.77;;;;;;;5.34;100.00;101075.97;4963107;28;20192;-72
2023/04/14 00:36:51;;;;;;;7.77;3.20;;;;;;;5.27;100.00;101053.69;4988468;28;20762;-72
2023/04/14 00:39:16;;;;;;;10.67;3.00;;;;;;;4.87;100.00;100988.66;4965466;28;20182;-72
2023/04/14 00:41:42;;;;;;;8.90;3.53;;;;;;;5.35;100.00;101087.44;4984204;28;20201;-72
2023/04/14 00:44:08;;;;;;;9.07;3.63;;;;;;;5.24;100.00;101080.59;4987761;28;20181;-72
2023/04/14 00:46:35;;;;;;;6.70;2.90;;;;;;;5.26;100.00;101089.22;4989441;28;20237;-72
2023/04/14 00:49:00;;;;;;;9.37;3.30;;;;;;;5.22;100.00;101085.25;4991420;28;20503;-72
2023/04/14 00:51:26;;;;;;;7.30;3.47;;;;;;;5.57;100.00;101070.94;4987141;28;20466;-72
2023/04/14 00:53:53;;;;;;;5.87;2.50;;;;;;;5.19;100.00;101051.81;4972262;28;20224;-71
2023/04/14 00:56:20;;;;;;;8.17;3.07;;;;;;;5.32;100.00;101082.44;4987154;28;20713;-72
2023/04/14 00:58:45;;;;;;;7.23;2.90;;;;;;;5.38;100.00;101081.81;4984277;28;20461;-72
2023/04/14 01:01:11;;;;;;;7.37;2.60;;;;;;;5.59;100.00;101082.25;4969399;28;20518;-72
2023/04/14 01:03:37;;;;;;;9.70;3.03;;;;;;;5.06;100.00;101062.03;4990206;28;20588;-72
2023/04/14 01:06:04;;;;;;;7.20;3.10;;;;;;;5.43;100.00;101095.47;4987631;28;20433;-72
2023/04/14 01:08:30;;;;;;;7.87;3.30;;;;;;;5.30;100.00;101082.63;4987500;28;20202;-72
2023/04/14 01:11:29;;;;;;;5.60;2.80;;;;;;;5.46;100.00;101110.28;4986037;28;20446;-72
2023/04/14 01:14:10;;;;;;;8.90;3.00;;;;;;;5.61;100.00;101114.88;4970018;28;20437;-72
2023/04/14 01:16:39;;;;;;;13.60;3.17;;;;;;;5.17;100.00;101104.31;4988115;28;20420;-72
2023/04/14 01:19:46;;;;;;;8.47;2.93;;;;;;;5.49;100.00;101110.81;4970072;28;20428;-72
2023/04/14 01:22:17;;;;;;;9.30;3.63;;;;;;;5.43;100.00;101106.13;4985581;28;20420;-72
2023/04/14 01:25:14;;;;;;;7.30;3.00;;;;;;;5.12;100.00;101076.53;4990572;28;20495;-72
2023/04/14 01:28:03;;;;;;;8.00;3.13;;;;;;;5.04;100.00;101114.53;4989062;28;20495;-72
2023/04/14 01:30:48;;;;;;;10.37;4.40;;;;;;;5.13;100.00;101112.78;4964927;28;20425;-72
2023/04/14 01:33:19;;;;;;;8.30;3.00;;;;;;;4.82;100.00;101088.47;4970870;28;20469;-72
2023/04/14 01:35:50;;;;;;;5.80;2.70;;;;;;;5.11;100.00;101114.75;4978899;28;20527;-72
2023/04/14 01:38:24;;;;;;;11.83;3.30;;;;;;;5.00;100.00;101105.19;4966053;28;20456;-72
2023/04/14 01:40:52;;;;;;;5.40;2.87;;;;;;;5.06;100.00;101122.34;4981509;28;20944;-72
2023/04/14 01:43:24;;;;;;;7.80;3.00;;;;;;;5.13;100.00;101104.81;4985501;28;20432;-72
2023/04/14 01:45:52;;;;;;;8.57;3.37;;;;;;;4.83;100.00;101008.59;4990080;28;20425;-72
2023/04/14 01:48:18;;;;;;;7.13;3.00;;;;;;;4.91;100.00;101106.13;4988612;28;20563;-72
2023/04/14 01:50:45;;;;;;;5.27;2.60;;;;;;;4.89;100.00;101124.91;4987144;28;20477;-72
2023/04/14 01:53:14;;;;;;;8.10;2.93;;;;;;;5.08;100.00;101139.00;4969053;28;20457;-72
2023/04/14 01:55:41;;;;;;;9.20;3.83;;;;;;;5.10;100.00;101113.09;4984971;28;20536;-72
2023/04/14 01:58:08;;;;;;;7.20;3.40;;;;;;;5.06;100.00;101112.53;4967131;28;20468;-72
2023/04/14 02:00:35;;;;;;;6.53;2.80;;;;;;;4.80;100.00;101119.66;4969509;28;20436;-72
2023/04/14 02:03:04;;;;;;;8.77;3.60;;;;;;;4.80;100.00;101130.31;4987015;28;20456;-72
2023/04/14 02:05:33;;;;;;;7.23;3.10;;;;;;;4.86;100.00;101124.38;4984543;28;20453;-72
2023/04/14 02:08:00;;;;;;;10.07;4.13;;;;;;;4.71;100.00;101087.72;4990733;28;20440;-72
2023/04/14 02:10:27;;;;;;;9.70;3.40;;;;;;;4.97;100.00;101102.84;4987780;28;20433;-72
2023/04/14 02:12:56;;;;;;;8.23;3.73;;;;;;;4.52;100.00;101083.41;4983581;28;20535;-72
2023/04/14 02:15:24;;;;;;;10.70;4.30;;;;;;;4.94;100.00;101129.75;4982946;28;20445;-72
2023/04/14 02:17:51;;;;;;;6.73;3.30;;;;;;;4.67;100.00;101090.84;4984927;28;20507;-72
2023/04/14 02:20:20;;;;;;;10.77;4.30;;;;;;;4.74;100.00;101098.06;4983543;28;20528;-72
2023/04/14 02:22:46;;;;;;;6.87;3.90;;;;;;;5.06;100.00;101127.66;4969464;28;20448;-72
2023/04/14 02:25:11;;;;;;;5.70;3.87;;;;;;;4.74;100.00;101074.16;4985143;28;20452;-72
2023/04/14 02:27:48;;;;;;;9.47;4.30;;;;;;;5.03;100.00;101154.56;4963482;28;20472;-72
2023/04/14 02:30:20;;;;;;;11.07;4.53;;;;;;;4.88;100.00;101135.69;4962399;28;20743;-72
2023/04/14 02:32:52;;;;;;;8.20;4.20;;;;;;;4.76;100.00;101153.69;4962980;28;20560;-72
2023/04/14 02:35:25;;;;;;;12.50;4.70;;;;;;;4.55;100.00;101111.50;4985249;28;20449;-71
2023/04/14 02:37:55;;;;;;;8.57;3.70;;;;;;;4.85;100.00;101146.63;4984852;28;20469;-72
2023/04/14 02:40:30;;;;;;;9.47;4.10;;;;;;;4.88;100.00;101143.66;4983942;28;20478;-71
2023/04/14 02:43:00;;;;;;;8.70;4.10;;;;;;;4.97;100.00;101137.41;4986173;28;20423;-72
2023/04/14 02:45:29;;;;;;;8.87;4.13;;;;;;;4.91;100.00;101143.34;4969449;28;20536;-72
2023/04/14 02:48:01;;;;;;;9.53;4.50;;;;;;;4.66;100.00;101118.41;4963821;28;20547;-72
2023/04/14 02:50:29;;;;;;;8.30;4.90;;;;;;;4.26;100.00;101112.56;4986657;28;20554;-72
2023/04/14 02:52:57;;;;;;;11.30;4.80;;;;;;;4.06;100.00;101048.16;4988017;28;20469;-72
2023/04/14 02:55:23;;;;;;;10.77;4.20;;;;;;;4.58;100.00;101151.06;4989265;28;20445;-72
2023/04/14 02:57:51;;;;;;;8.17;3.33;;;;;;;5.04;100.00;101135.00;4983930;28;20460;-72
2023/04/14 03:00:17;;;;;;;11.70;4.60;;;;;;;4.78;100.00;101089.78;4965845;28;20511;-72
2023/04/14 03:02:45;;;;;;;9.40;3.77;;;;;;;4.63;100.00;101081.50;4979692;28;20495;-72
2023/04/14 03:05:11;;;;;;;10.83;4.47;;;;;;;5.03;100.00;101090.75;4959942;28;20441;-72
2023/04/14 03:07:37;;;;;;;8.47;4.03;;;;;;;5.08;100.00;101134.50;4962333;28;20461;-72
2023/04/14 03:10:04;;;;;;;16.60;5.13;;;;;;;5.15;100.00;101155.97;4961810;28;20440;-72
2023/04/14 03:12:33;;;;;;;8.40;4.13;;;;;;;4.57;100.00;101071.50;4968800;28;20536;-72
2023/04/14 03:15:01;;;;;;;8.73;3.27;;;;;;;5.21;100.00;101153.56;4985801;28;20441;-72
2023/04/14 03:17:27;;;;;;;11.10;3.87;;;;;;;5.20;100.00;101151.88;4980377;28;20472;-72
2023/04/14 03:19:53;;;;;;;11.50;3.83;;;;;;;4.90;100.00;101094.69;4983378;28;20531;-72
2023/04/14 03:22:19;;;;;;;9.00;3.70;;;;;;;5.35;100.00;101151.28;4990242;28;20524;-72
2023/04/14 03:24:46;;;;;;;10.90;4.20;;;;;;;5.08;100.00;101134.50;4988512;28;20569;-72
2023/04/14 03:27:24;;;;;;;8.47;3.73;;;;;;;5.31;100.00;101131.34;4990928;28;20468;-72
2023/04/14 03:29:52;;;;;;;6.93;3.53;;;;;;;5.41;100.00;101090.34;4970966;28;21021;-72
2023/04/14 03:32:20;;;;;;;9.40;3.80;;;;;;;5.40;100.00;101119.75;4990657;28;20476;-72
2023/04/14 03:34:49;;;;;;;7.77;3.20;;;;;;;5.34;100.00;101153.13;4990044;28;20904;-72
2023/04/14 03:37:19;;;;;;;8.73;4.40;;;;;;;4.78;100.00;101057.88;4986387;28;20939;-72
2023/04/14 03:39:49;;;;;;;9.27;3.50;;;;;;;5.57;100.00;101144.63;4988561;28;20421;-72
2023/04/14 03:42:17;;;;;;;5.60;3.10;;;;;;;5.48;100.00;101122.44;4985581;28;20444;-72
2023/04/14 03:44:48;;;;;;;9.07;3.70;;;;;;;5.54;100.00;101172.38;4987578;28;20448;-72
2023/04/14 03:47:14;;;;;;;8.87;3.53;;;;;;;5.24;100.00;101171.03;4987605;28;21022;-72
2023/04/14 03:49:45;;;;;;;7.37;3.93;;;;;;;5.34;100.00;101129.19;4990383;28;20450;-72
2023/04/14 03:52:12;;;;;;;9.37;4.33;;;;;;;5.41;100.00;101121.44;4987429;28;20202;-72
2023/04/14 03:54:40;;;;;;;11.63;4.27;;;;;;;5.56;100.00;101135.81;4964619;28;21391;-72
2023/04/14 03:57:09;;;;;;;4.60;2.97;;;;;;;5.49;100.00;101161.34;4972480;28;20468;-72
2023/04/14 03:59:37;;;;;;;10.47;5.57;;;;;;;5.49;100.00;101142.72;4989946;28;20947;-72
2023/04/14 04:02:04;;;;;;;8.83;3.40;;;;;;;5.48;100.00;101158.88;4989397;28;20428;-72
2023/04/14 04:04:30;;;;;;;11.23;3.60;;;;;;;5.67;100.00;101158.66;4984841;28;21194;-72
2023/04/14 04:06:57;;;;;;;7.50;3.00;;;;;;;5.38;100.00;101141.19;4987641;28;20527;-72
2023/04/14 04:09:24;;;;;;;12.90;4.13;;;;;;;5.75;100.00;101160.50;4986847;28;20452;-72
2023/04/14 04:11:51;;;;;;;4.33;3.00;;;;;;;5.55;100.00;101151.91;4988509;28;20471;-72
2023/04/14 04:14:20;;;;;;;10.37;3.70;;;;;;;5.39;100.00;101120.75;4988657;28;20465;-72
2023/04/14 04:16:48;;;;;;;8.07;3.37;;;;;;;5.45;100.00;101165.34;4970843;28;20452;-72
2023/04/14 04:19:14;;;;;;;7.30;3.27;;;;;;;5.14;100.00;101125.06;4966542;28;20561;-72
2023/04/14 04:21:43;;;;;;;6.73;3.37;;;;;;;5.42;100.00;101166.47;4993401;28;20420;-72
2023/04/14 04:24:10;;;;;;;14.03;3.97;;;;;;;5.39;100.00;101157.97;4991133;28;21470;-72
2023/04/14 04:26:35;;;;;;;7.90;3.17;;;;;;;5.60;100.00;101136.31;4986662;28;20449;-72
2023/04/14 04:29:02;;;;;;;7.20;3.00;;;;;;;5.64;100.00;101137.66;4971531;28;20433;-72
2023/04/14 04:31:28;;;;;;;6.50;3.37;;;;;;;5.30;100.00;101137.66;4985062;28;20186;-72
2023/04/14 04:33:55;;;;;;;7.20;3.90;;;;;;;4.95;100.00;101086.25;4966242;28;20496;-72
2023/04/14 04:36:21;;;;;;;7.47;3.43;;;;;;;5.38;100.00;101172.25;4987654;28;20944;-72
2023/04/14 04:38:48;;;;;;;9.77;3.00;;;;;;;5.06;100.00;101159.56;4972297;28;20959;-72
2023/04/14 04:41:26;;;;;;;5.57;3.27;;;;;;;5.15;100.00;101156.84;4971318;28;20457;-73
2023/04/14 04:43:52;;;;;;;6.83;3.47;;;;;;;5.21;100.00;101180.16;4991460;28;20583;-72
2023/04/14 04:46:45;;;;;;;8.57;3.80;;;;;;;5.19;100.00;101182.13;4987372;28;20528;-72
2023/04/14 04:49:10;;;;;;;5.53;3.30;;;;;;;4.76;100.00;101119.16;4972657;28;20200;-72
2023/04/14 04:51:36;;;;;;;7.80;4.03;;;;;;;4.56;100.00;101085.78;4985724;28;20460;-72
2023/04/14 04:54:01;;;;;;;6.90;3.50;;;;;;;5.03;100.00;101155.41;4984469;28;20276;-72
2023/04/14 04:56:26;;;;;;;6.97;3.37;;;;;;;5.19;100.00;101182.13;4984118;28;20198;-72
2023/04/14 04:58:52;;;;;;;8.57;3.40;;;;;;;4.98;100.00;101168.34;4989385;28;20569;-72
2023/04/14 05:01:20;;;;;;;8.77;4.87;;;;;;;5.27;100.00;101188.50;4986818;28;20190;-72
2023/04/14 05:03:46;;;;;;;8.23;3.17;;;;;;;4.70;100.00;101149.81;4990057;28;20256;-72
2023/04/14 05:06:12;;;;;;;8.53;3.50;;;;;;;5.04;100.00;101178.34;4977212;28;20449;-72
2023/04/14 05:08:37;;;;;;;6.07;3.33;;;;;;;4.86;100.00;101189.00;4967374;28;20300;-72
2023/04/14 05:11:03;;;;;;;5.93;2.73;;;;;;;4.95;100.00;101180.13;4979048;28;20212;-72
2023/04/14 05:13:29;;;;;;;4.90;2.70;;;;;;;4.56;100.00;101162.81;4962608;28;20627;-72
2023/04/14 05:16:09;;;;;;;4.40;3.20;;;;;;;4.59;100.00;101167.81;4985414;28;20461;-72
2023/04/14 05:18:35;;;;;;;6.23;3.17;;;;;;;4.48;100.00;101190.97;4977162;28;20220;-72
2023/04/14 05:21:09;;;;;;;6.27;3.27;;;;;;;4.34;100.00;101182.66;4969546;28;20429;-72
2023/04/14 05:23:36;;;;;;;6.63;3.43;;;;;;;4.72;100.00;101189.53;4984715;28;20443;-72
2023/04/14 05:26:03;;;;;;;70.77;63.57;;;;;;;4.89;100.00;101193.16;4959100;28;20970;-72
2023/04/14 05:28:29;;;;;;;15.13;9.93;;;;;;;4.89;100.00;101198.47;4966617;28;21050;-72
2023/04/14 05:30:55;;;;;;;6.63;4.30;;;;;;;4.45;100.00;101102.78;4974989;28;20658;-72
2023/04/14 05:33:21;;;;;;;10.80;4.43;;;;;;;5.16;100.00;101190.41;4973475;28;20471;-72
2023/04/14 05:35:46;;;;;;;8.00;5.20;;;;;;;4.88;100.00;101192.34;4974140;28;20828;-72
2023/04/14 05:38:12;;;;;;;7.07;6.37;;;;;;;5.11;100.00;101198.00;4957036;28;20472;-72
2023/04/14 05:40:38;;;;;;;5.90;3.40;;;;;;;5.20;100.00;101201.56;4976975;28;20201;-72
2023/04/14 05:43:04;;;;;;;5.73;3.23;;;;;;;4.90;100.00;101168.28;4973045;28;20453;-72
2023/04/14 05:45:30;;;;;;;7.10;4.00;;;;;;;5.32;100.00;101200.34;4978789;28;20468;-72
2023/04/14 05:47:55;;;;;;;202.40;76.23;;;;;;;5.38;100.00;101199.72;4982629;28;20504;-72
2023/04/14 05:50:24;;;;;;;78.47;32.63;;;;;;;5.25;100.00;101185.97;4988333;28;20189;-72
2023/04/14 05:52:50;;;;;;;14.63;8.07;;;;;;;5.32;100.00;101207.47;4986068;28;20197;-72
2023/04/14 05:55:17;;;;;;;5.97;3.67;;;;;;;5.33;100.00;101209.16;4984249;28;20962;-72
2023/04/14 05:57:42;;;;;;;5.93;3.33;;;;;;;5.26;100.00;101208.91;4986541;28;20444;-72
2023/04/14 06:00:09;;;;;;;4.77;3.40;;;;;;;5.15;100.00;101163.97;4969663;28;21001;-72
2023/04/14 06:02:35;;;;;;;22.90;19.87;;;;;;;5.56;100.00;101193.50;4963321;28;20225;-72
2023/04/14 06:05:00;;;;;;;24.87;20.37;;;;;;;5.59;100.00;101196.69;4982825;28;20858;-72
2023/04/14 06:07:26;;;;;;;9.00;5.63;;;;;;;5.56;100.00;101182.88;4982551;28;20201;-72
2023/04/14 06:09:52;;;;;;;20.87;18.80;;;;;;;5.79;100.00;101196.47;4965097;28;20784;-72
2023/04/14 06:12:19;;;;;;;10.30;8.93;;;;;;;5.95;100.00;101201.06;4962550;28;20457;-72
2023/04/14 06:14:45;;;;;;;7.43;4.50;;;;;;;5.74;100.00;101226.22;4983897;28;20437;-72
2023/04/14 06:17:10;;;;;;;8.27;3.20;;;;;;;5.53;100.00;101184.00;4967038;28;20469;-72
2023/04/14 06:19:36;;;;;;;8.40;3.50;;;;;;;5.90;100.00;101209.47;4959777;28;20193;-72
2023/04/14 06:22:01;;;;;;;9.03;3.57;;;;;;;6.13;100.00;101204.44;4981622;28;20177;-72
2023/04/14 06:24:26;;;;;;;4.77;2.90;;;;;;;5.99;100.00;101197.06;4960184;28;20688;-72
2023/04/14 06:26:52;;;;;;;6.93;3.30;;;;;;;5.93;100.00;101142.66;4983314;28;20317;-72
2023/04/14 06:29:17;;;;;;;7.27;3.23;;;;;;;6.65;100.00;101227.41;4981440;28;20185;-72
2023/04/14 06:31:43;;;;;;;16.10;12.93;;;;;;;6.34;100.00;101196.88;4979511;28;20214;-72
2023/04/14 06:34:09;;;;;;;15.97;12.97;;;;;;;6.27;100.00;101229.63;4989363;28;20255;-72
2023/04/14 06:36:34;;;;;;;17.97;15.13;;;;;;;6.38;100.00;101208.03;4987621;28;20876;-72
2023/04/14 06:39:00;;;;;;;9.03;6.57;;;;;;;6.36;100.00;101225.19;4989997;28;20185;-72
2023/04/14 06:41:25;;;;;;;8.60;6.50;;;;;;;6.60;100.00;101229.75;4986753;28;20192;-72
2023/04/14 06:43:51;;;;;;;10.00;6.30;;;;;;;5.83;100.00;101109.97;4990394;28;20563;-72
2023/04/14 06:46:17;;;;;;;7.90;4.60;;;;;;;6.69;100.00;101223.44;4992956;28;20185;-72
2023/04/14 06:48:43;;;;;;;5.67;4.20;;;;;;;6.38;100.00;101162.75;4970952;28;20228;-72
2023/04/14 06:51:11;;;;;;;7.27;4.80;;;;;;;6.77;100.00;101213.63;4989814;28;20440;-72
2023/04/14 06:53:37;;;;;;;7.63;4.33;;;;;;;6.70;100.00;101212.59;4991276;28;20615;-72
2023/04/14 06:56:04;;;;;;;8.33;3.57;;;;;;;6.73;100.00;101187.44;4973175;28;20986;-72
2023/04/14 06:58:30;;;;;;;7.00;3.50;;;;;;;6.78;100.00;101214.44;4992215;28;20449;-72
2023/04/14 07:00:56;;;;;;;5.50;2.80;;;;;;;6.94;100.00;101195.81;4984322;28;20445;-72
2023/04/14 07:03:22;;;;;;;6.43;2.87;;;;;;;6.93;100.00;101178.13;4990703;28;20690;-72
2023/04/14 07:05:48;;;;;;;5.00;2.37;;;;;;;7.40;100.00;101220.09;4988727;28;20424;-72
2023/04/14 07:08:13;;;;;;;6.43;2.57;;;;;;;6.94;100.00;101147.81;4990365;28;20448;-72
2023/04/14 07:10:42;;;;;;;10.03;3.00;;;;;;;7.66;100.00;101232.41;4988326;28;20256;-72
2023/04/14 07:13:07;;;;;;;3.83;2.50;;;;;;;7.73;100.00;101237.94;4981569;28;20293;-72
2023/04/14 07:15:33;;;;;;;3.53;2.20;;;;;;;7.42;100.00;101177.25;4991652;28;20524;-72
2023/04/14 07:17:58;;;;;;;6.90;2.70;;;;;;;7.79;100.00;101230.06;4991358;28;20200;-73
2023/04/14 07:20:24;;;;;;;11.30;2.60;;;;;;;7.70;100.00;101199.06;4968224;28;20607;-73
2023/04/14 07:22:49;;;;;;;7.07;2.90;;;;;;;7.84;100.00;101224.19;4990690;28;20224;-73
2023/04/14 07:25:15;;;;;;;6.27;2.73;;;;;;;7.76;100.00;101224.25;4990788;28;20487;-72
2023/04/14 07:27:40;;;;;;;3.57;2.03;;;;;;;7.50;100.00;101163.91;4992276;28;20213;-72
2023/04/14 07:30:06;;;;;;;5.50;2.53;;;;;;;7.52;100.00;101167.25;4991883;28;20182;-72
2023/04/14 07:32:32;;;;;;;6.10;2.73;;;;;;;7.64;100.00;101173.88;4972248;28;20201;-72
2023/04/14 07:34:58;;;;;;;6.90;2.30;;;;;;;7.95;100.00;101223.84;4989669;28;20440;-72
2023/04/14 07:37:24;;;;;;;4.73;2.47;;;;;;;7.92;100.00;101234.88;4974673;28;20216;-72
2023/04/14 07:39:50;;;;;;;4.63;2.27;;;;;;;8.00;100.00;101232.16;4989211;28;20460;-72
2023/04/14 07:42:15;;;;;;;5.77;2.40;;;;;;;8.06;100.00;101236.81;4974922;28;20425;-72
2023/04/14 07:44:41;;;;;;;5.27;2.47;;;;;;;7.97;100.00;101211.16;4989864;28;20188;-72
2023/04/14 07:47:06;;;;;;;5.53;2.67;;;;;;;7.90;100.00;101188.81;4991746;28;20209;-72
2023/04/14 07:49:32;;;;;;;4.53;2.37;;;;;;;8.03;100.00;101207.78;4947726;28;1270376;-72
2023/04/14 07:51:58;;;;;;;3.03;2.13;;;;;;;8.36;100.00;101232.53;4967592;28;20276;-72
2023/04/14 07:54:24;;;;;;;5.60;2.70;;;;;;;8.45;100.00;101233.34;4988466;28;20194;-73
2023/04/14 07:56:49;;;;;;;4.60;2.63;;;;;;;8.52;100.00;101223.63;4990414;28;20443;-73
2023/04/14 07:59:15;;;;;;;4.80;2.73;;;;;;;8.52;100.00;101231.63;4991792;28;20185;-72
2023/04/14 08:01:41;;;;;;;5.70;2.80;;;;;;;8.44;100.00;101207.63;4972954;28;20253;-72
2023/04/14 08:04:06;;;;;;;8.10;3.17;;;;;;;8.48;100.00;101224.97;4986302;28;20653;-73
2023/04/14 08:06:32;;;;;;;5.83;2.30;;;;;;;8.59;100.00;101216.56;4974444;28;20436;-72
2023/04/14 08:08:58;;;;;;;6.00;2.00;;;;;;;8.68;100.00;101213.81;4990385;28;20201;-73
2023/04/14 08:11:23;;;;;;;5.70;2.07;;;;;;;8.74;100.00;101207.78;4991208;28;21134;-72
2023/04/14 08:13:49;;;;;;;4.40;2.50;;;;;;;8.87;100.00;101225.91;4969856;28;20209;-72
2023/04/14 08:16:15;;;;;;;5.47;2.20;;;;;;;8.82;100.00;101192.50;4991340;28;20272;-73
2023/04/14 08:18:41;;;;;;;4.30;2.20;;;;;;;8.75;100.00;101180.84;4967817;28;20751;-72
2023/04/14 08:21:07;;;;;;;17.60;13.87;;;;;;;8.87;100.00;101180.44;4967967;28;20532;-72
2023/04/14 08:23:33;;;;;;;51.97;46.57;;;;;;;8.93;100.00;101180.53;4971527;28;20815;-72
2023/04/14 08:25:58;;;;;;;25.33;22.80;;;;;;;8.91;100.00;101192.44;4989334;28;20199;-72
2023/04/14 08:28:24;;;;;;;12.30;9.60;;;;;;;8.93;100.00;101179.72;4990421;28;20457;-72
2023/04/14 08:30:49;;;;;;;9.60;8.60;;;;;;;9.03;100.00;101191.00;4974103;28;20192;-72
2023/04/14 08:33:15;;;;;;;22.83;17.40;;;;;;;9.16;100.00;101199.25;4989399;28;20206;-72
2023/04/14 08:35:40;;;;;;;11.60;10.40;;;;;;;9.14;100.00;101146.91;4990612;28;20182;-72
2023/04/14 08:38:06;;;;;;;9.87;5.07;;;;;;;8.97;100.00;101103.44;4989301;28;20218;-72
2023/04/14 08:40:40;;;;;;;6.50;3.20;;;;;;;9.49;100.00;101172.19;4988395;28;20190;-72
2023/04/14 08:43:06;;;;;;;5.40;2.17;;;;;;;9.66;100.00;101136.16;4967322;28;20611;-72
2023/04/14 08:45:32;;;;;;;14.13;10.57;;;;;;;9.55;100.00;101123.25;4973639;28;20457;-73
2023/04/14 08:47:58;;;;;;;14.27;9.97;;;;;;;9.32;100.00;101107.25;4987821;28;20216;-73
2023/04/14 08:50:42;;;;;;;9.43;5.47;;;;;;;9.47;100.00;101126.00;4974255;28;20474;-73
2023/04/14 08:53:09;;;;;;;23.20;19.40;;;;;;;9.44;100.00;101129.88;4988255;28;20468;-72
2023/04/14 08:55:38;;;;;;;16.13;14.47;;;;;;;9.31;100.00;101118.13;4980154;28;20812;-73
2023/04/14 08:58:06;;;;;;;9.23;6.23;;;;;;;9.46;100.00;101133.22;4989055;28;20559;-72
2023/04/14 09:00:32;;;;;;;6.10;4.40;;;;;;;9.59;100.00;101127.19;4985898;28;20444;-73
2023/04/14 09:02:58;;;;;;;9.23;3.60;;;;;;;9.44;100.00;101088.91;4991202;28;20455;-72
2023/04/14 09:05:24;;;;;;;11.47;8.50;;;;;;;9.97;100.00;101148.50;4988536;28;20196;-73
2023/04/14 09:07:51;;;;;;;8.93;7.27;;;;;;;9.56;100.00;101078.53;4987923;28;20484;-73
2023/04/14 09:10:16;;;;;;;4.47;3.13;;;;;;;9.71;100.00;101088.22;4991035;28;20495;-73
2023/04/14 09:12:43;;;;;;;11.17;4.30;;;;;;;10.13;100.00;101115.31;4972375;28;20987;-72
2023/04/14 09:15:10;;;;;;;28.63;13.97;;;;;;;10.14;100.00;101080.25;4989289;28;20285;-72
2023/04/14 09:17:36;;;;;;;18.07;12.07;;;;;;;9.85;100.00;101035.63;4965503;28;20885;-72
2023/04/14 09:20:02;;;;;;;9.00;6.30;;;;;;;10.07;100.00;101052.56;4985421;28;20448;-73
2023/04/14 09:22:28;;;;;;;8.07;6.10;;;;;;;10.45;100.00;101076.47;4988110;28;20190;-72
2023/04/14 09:24:54;;;;;;;10.73;7.50;;;;;;;10.34;100.00;101047.50;4985919;28;20452;-73
2023/04/14 09:27:19;;;;;;;6.70;4.17;;;;;;;10.03;100.00;101018.28;4992418;28;20209;-72
2023/04/14 09:29:46;;;;;;;3.60;2.47;;;;;;;10.54;100.00;101086.06;4989285;28;20436;-72
2023/04/14 09:32:12;;;;;;;6.80;1.83;;;;;;;10.57;100.00;101061.53;4991926;28;20233;-73
2023/04/14 09:34:53;;;;;;;4.23;1.50;;;;;;;10.14;100.00;100965.00;4990461;28;20547;-73
2023/04/14 09:37:20;;;;;;;7.77;3.83;;;;;;;10.77;100.00;101044.78;4989049;28;20214;-73
2023/04/14 09:39:48;;;;;;;32.93;29.60;;;;;;;10.76;100.00;101067.22;4985047;28;20523;-73
2023/04/14 09:42:15;;;;;;;24.07;21.60;;;;;;;10.93;100.00;101046.31;4966549;28;20440;-73
2023/04/14 09:45:00;;;;;;;23.20;20.30;;;;;;;10.89;100.00;101053.09;4988592;28;20429;-72
2023/04/14 09:47:25;;;;;;;15.13;9.30;;;;;;;11.11;100.00;101032.38;4988883;28;20848;-73
2023/04/14 09:49:56;;;;;;;7.53;4.30;;;;;;;11.30;100.00;101045.91;4989302;28;20457;-73
2023/04/14 09:52:21;;;;;;;6.67;2.13;;;;;;;11.04;100.00;101025.13;4991087;28;20212;-72
2023/04/14 09:54:53;;;;;;;6.47;2.10;;;;;;;11.29;100.00;101030.84;4986168;28;20441;-72
2023/04/14 09:57:27;;;;;;;9.30;2.40;;;;;;;11.46;100.00;101023.28;4976673;28;20217;-72
2023/04/14 09:59:53;;;;;;;7.20;2.37;;;;;;;11.37;100.00;101031.69;4991031;28;21074;-72
2023/04/14 10:02:18;;;;;;;5.20;2.10;;;;;;;11.54;100.00;101046.44;4972363;28;20489;-73
2023/04/14 10:04:44;;;;;;;8.67;2.27;;;;;;;11.55;100.00;101053.50;4989794;28;20185;-73
2023/04/14 10:07:11;;;;;;;6.63;2.50;;;;;;;11.63;100.00;101047.09;4990538;28;20681;-72
2023/04/14 10:09:37;;;;;;;4.80;1.93;;;;;;;11.23;100.00;101044.25;4990689;28;20220;-73
2023/04/14 10:12:21;;;;;;;8.70;2.50;;;;;;;11.02;100.00;101019.16;4971414;28;20465;-73
2023/04/14 10:14:46;;;;;;;4.90;2.20;;;;;;;11.09;100.00;101033.41;4963078;28;20520;-73
2023/04/14 10:17:12;;;;;;;5.90;2.50;;;;;;;11.27;100.00;101014.09;4989616;28;20451;-72
2023/04/14 10:19:38;;;;;;;5.50;2.20;;;;;;;11.52;100.00;101037.78;4989552;28;20205;-73
2023/04/14 10:22:06;;;;;;;5.60;2.20;;;;;;;11.69;100.00;101039.09;4989925;28;20185;-73
2023/04/14 10:24:33;;;;;;;10.93;2.90;;;;;;;11.90;100.00;101040.84;4971523;28;20185;-70
2023/04/14 10:27:01;;;;;;;6.10;2.30;;;;;;;12.07;100.00;101045.84;4972415;28;20559;-70
2023/04/14 10:29:28;;;;;;;9.87;3.00;;;;;;;11.90;100.00;101027.41;4988361;28;20438;-70
2023/04/14 10:32:06;;;;;;;5.80;2.40;;;;;;;12.06;100.00;101038.78;4990010;28;20457;-70
2023/04/14 10:34:32;;;;;;;6.50;2.97;;;;;;;11.99;100.00;101030.72;4987213;28;20468;-70
2023/04/14 10:37:14;;;;;;;5.40;2.73;;;;;;;12.39;100.00;101046.94;4989962;28;20552;-70
2023/04/14 10:39:41;;;;;;;7.90;2.80;;;;;;;12.35;100.00;101042.97;4988273;28;20494;-70
2023/04/14 10:42:07;;;;;;;7.20;2.83;;;;;;;12.46;100.00;101050.44;4988539;28;20420;-70
2023/04/14 10:44:34;;;;;;;6.10;3.23;;;;;;;12.59;100.00;101038.88;4970631;28;20432;-70
2023/04/14 10:47:03;;;;;;;4.27;2.40;;;;;;;12.49;100.00;101014.22;4966301;28;20210;-70
2023/04/14 10:49:30;;;;;;;9.03;4.00;;;;;;;12.55;100.00;101032.22;4970166;28;20448;-70
2023/04/14 10:52:26;;;;;;;8.53;3.33;;;;;;;12.35;100.00;101018.78;4987805;28;20464;-70
2023/04/14 10:54:54;;;;;;;6.23;3.13;;;;;;;12.29;100.00;101025.78;4988939;28;20506;-70
2023/04/14 10:57:24;;;;;;;6.07;3.07;;;;;;;12.50;100.00;101026.63;4987373;28;20499;-70
2023/04/14 10:59:54;;;;;;;7.00;3.33;;;;;;;12.39;100.00;101028.94;4969085;28;20951;-70
2023/04/14 11:02:31;;;;;;;7.77;3.40;;;;;;;12.43;100.00;100999.75;4986770;28;20533;-70
2023/04/14 11:05:09;;;;;;;8.73;3.07;;;;;;;12.78;100.00;101016.47;4987101;28;20428;-70
2023/04/14 11:07:43;;;;;;;8.00;3.63;;;;;;;12.52;100.00;101016.50;4987484;28;20495;-70
2023/04/14 11:10:18;;;;;;;9.03;3.80;;;;;;;12.52;100.00;101017.31;4986860;28;20939;-70
2023/04/14 11:12:44;;;;;;;5.93;4.33;;;;;;;12.78;100.00;101003.03;4989312;28;20884;-70
2023/04/14 11:15:10;;;;;;;8.67;3.97;;;;;;;12.75;100.00;101016.06;4985210;28;20537;-71
2023/04/14 11:17:39;;;;;;;8.80;4.27;;;;;;;12.89;100.00;101013.16;4979144;28;20559;-70
2023/04/14 11:20:16;;;;;;;7.10;3.80;;;;;;;12.79;100.00;100999.31;4999929;28;20269;-70
2023/04/14 11:22:46;;;;;;;8.93;3.33;;;;;;;12.64;100.00;101007.63;4987191;28;20908;-70
2023/04/14 11:25:14;;;;;;;5.90;3.47;;;;;;;12.99;100.00;100990.34;4965799;28;20576;-70